Time;durP1;ratioP1;P1;durP2;ratioP2;P2;SDS_P1;SDS_P2;PMS_P1;PMS_P2;Temp;Humidity;BMP_temperature;BMP_pressure;BME280_temperature;BME280_humidity;BME280_pressure;Samples;Min_cycle;Max_cycle;Signal;HPM_P1;HPM_P2
2020/12/09 00:01:31;;;;;;;30.40;17.33;;;4.60;99.90;;;;;;5061555;28;20581;-87
2020/12/09 00:03:57;;;;;;;;;;;4.60;99.90;;;;;;5068920;28;20035;-86
2020/12/09 00:06:33;;;;;;;28.88;16.63;;;4.60;99.90;;;;;;5059051;28;20481;-87
2020/12/09 00:09:00;;;;;;;32.13;18.35;;;4.60;99.90;;;;;;5068481;28;20035;-87
2020/12/09 00:11:25;;;;;;;31.55;17.13;;;4.60;99.90;;;;;;5059550;28;20058;-87
2020/12/09 00:13:51;;;;;;;27.00;15.48;;;4.60;99.90;;;;;;5083175;28;20048;-87
2020/12/09 00:16:18;;;;;;;26.33;16.02;;;4.60;99.90;;;;;;5059597;28;20024;-87
2020/12/09 00:18:44;;;;;;;29.58;17.40;;;4.50;99.90;;;;;;5059177;28;20024;-87
2020/12/09 00:21:15;;;;;;;29.45;17.65;;;4.50;99.90;;;;;;5062163;28;20139;-86
2020/12/09 00:23:41;;;;;;;25.85;15.45;;;4.50;99.90;;;;;;5075125;28;20488;-87
2020/12/09 00:26:07;;;;;;;25.45;15.55;;;4.50;99.90;;;;;;5063358;28;20020;-87
2020/12/09 00:28:32;;;;;;;26.13;15.85;;;4.50;99.90;;;;;;5064111;28;20115;-87
2020/12/09 00:30:58;;;;;;;25.95;16.00;;;4.50;99.90;;;;;;5056290;28;20021;-87
2020/12/09 00:33:23;;;;;;;28.02;15.52;;;4.50;99.90;;;;;;5068809;28;20024;-87
2020/12/09 00:35:49;;;;;;;28.02;15.82;;;4.50;99.90;;;;;;5090940;28;20386;-87
2020/12/09 00:38:14;;;;;;;26.88;16.83;;;4.50;99.90;;;;;;5064665;28;20028;-86
2020/12/09 00:40:43;;;;;;;26.40;15.70;;;4.50;99.90;;;;;;5061707;28;20070;-87
2020/12/09 00:43:08;;;;;;;24.63;14.93;;;4.50;99.90;;;;;;5058155;28;20026;-87
2020/12/09 00:45:34;;;;;;;28.80;15.23;;;4.50;99.90;;;;;;5063886;28;20567;-87
2020/12/09 00:47:59;;;;;;;26.10;15.25;;;4.60;99.90;;;;;;5062463;28;20139;-87
2020/12/09 00:50:28;;;;;;;23.85;15.32;;;4.50;99.90;;;;;;5063917;28;20066;-88
2020/12/09 00:52:54;;;;;;;28.85;17.08;;;4.50;99.90;;;;;;5061173;28;20017;-87
2020/12/09 00:55:19;;;;;;;24.25;15.65;;;4.50;99.90;;;;;;5063218;28;20047;-87
2020/12/09 00:57:45;;;;;;;26.77;16.35;;;4.50;99.90;;;;;;5061128;28;20043;-87
2020/12/09 01:00:11;;;;;;;27.70;16.52;;;4.50;99.90;;;;;;5082645;28;20467;-87
2020/12/09 01:02:37;;;;;;;28.08;16.30;;;4.50;99.90;;;;;;5068034;28;20078;-87
2020/12/09 01:05:08;;;;;;;24.15;14.95;;;4.50;99.90;;;;;;5060516;28;20027;-88
2020/12/09 01:07:34;;;;;;;27.75;16.48;;;4.50;99.90;;;;;;5062039;28;20402;-87
2020/12/09 01:09:59;;;;;;;25.92;16.42;;;4.40;99.90;;;;;;5062007;28;20503;-87
2020/12/09 01:12:25;;;;;;;41.72;23.80;;;4.30;99.90;;;;;;5061897;28;20020;-87
2020/12/09 01:14:51;;;;;;;45.38;26.30;;;4.30;99.90;;;;;;5067616;28;20023;-87
2020/12/09 01:17:17;;;;;;;40.97;23.33;;;4.30;99.90;;;;;;5068816;28;20024;-87
2020/12/09 01:19:42;;;;;;;37.17;21.98;;;4.20;99.90;;;;;;5063866;28;20035;-87
2020/12/09 01:22:08;;;;;;;34.75;20.65;;;4.30;99.90;;;;;;5063672;28;20107;-87
2020/12/09 01:24:34;;;;;;;31.40;19.13;;;4.20;99.90;;;;;;5057295;28;20024;-87
2020/12/09 01:27:00;;;;;;;33.20;18.67;;;4.30;99.90;;;;;;5062407;28;20028;-87
2020/12/09 01:29:26;;;;;;;27.13;15.45;;;4.40;99.90;;;;;;5078921;28;20077;-86
2020/12/09 01:32:01;;;;;;;29.48;17.08;;;4.40;99.90;;;;;;5066279;28;20024;-87
2020/12/09 01:34:28;;;;;;;31.77;18.70;;;4.40;99.90;;;;;;5065451;28;20016;-87
2020/12/09 01:36:55;;;;;;;28.08;16.60;;;4.40;99.90;;;;;;5060791;28;20017;-87
2020/12/09 01:39:20;;;;;;;26.60;17.02;;;4.40;99.90;;;;;;5079049;28;20028;-87
2020/12/09 01:41:47;;;;;;;26.30;15.88;;;4.40;99.90;;;;;;5060841;28;20031;-87
2020/12/09 01:44:12;;;;;;;25.73;16.63;;;4.40;99.90;;;;;;5066041;28;20028;-87
2020/12/09 01:46:38;;;;;;;30.52;16.88;;;4.40;99.90;;;;;;5063565;28;20050;-88
2020/12/09 01:49:04;;;;;;;26.70;17.45;;;4.40;99.90;;;;;;5069347;28;20112;-88
2020/12/09 01:51:30;;;;;;;33.30;19.95;;;4.30;99.90;;;;;;5069327;28;20024;-87
2020/12/09 01:53:57;;;;;;;33.13;20.23;;;4.30;99.90;;;;;;5060881;28;20021;-87
2020/12/09 01:56:23;;;;;;;30.42;19.75;;;4.20;99.90;;;;;;5054987;28;20052;-88
2020/12/09 01:58:50;;;;;;;30.77;20.13;;;4.20;99.90;;;;;;5072862;28;20810;-87
2020/12/09 02:01:17;;;;;;;32.83;20.30;;;4.20;99.90;;;;;;5058809;28;20025;-87
2020/12/09 02:03:42;;;;;;;38.72;22.23;;;4.20;99.90;;;;;;5060570;28;20039;-87
2020/12/09 02:06:08;;;;;;;35.95;21.63;;;4.20;99.90;;;;;;5067801;28;20539;-87
2020/12/09 02:08:33;;;;;;;33.10;22.15;;;4.20;99.90;;;;;;5062113;28;20467;-87
2020/12/09 02:11:00;;;;;;;37.17;21.95;;;4.20;99.90;;;;;;5067495;28;20407;-87
2020/12/09 02:13:27;;;;;;;32.63;19.42;;;4.30;99.90;;;;;;5073425;28;20024;-87
2020/12/09 02:15:52;;;;;;;33.42;20.33;;;4.30;99.90;;;;;;5067908;28;20027;-87
2020/12/09 02:18:18;;;;;;;30.77;19.80;;;4.30;99.90;;;;;;5093144;28;20025;-87
2020/12/09 02:20:44;;;;;;;36.72;19.95;;;4.30;99.90;;;;;;5070917;28;20028;-87
2020/12/09 02:23:10;;;;;;;37.15;22.33;;;4.30;99.90;;;;;;5079920;28;20036;-87
2020/12/09 02:25:36;;;;;;;37.70;22.98;;;4.30;99.90;;;;;;5082908;28;20016;-87
2020/12/09 02:28:01;;;;;;;36.20;22.98;;;4.30;99.90;;;;;;5067349;28;20040;-87
2020/12/09 02:30:27;;;;;;;41.65;24.30;;;4.20;99.90;;;;;;5087225;28;20016;-87
2020/12/09 02:32:52;;;;;;;40.75;24.02;;;4.20;99.90;;;;;;5063406;28;20019;-87
2020/12/09 02:35:18;;;;;;;39.22;22.98;;;4.30;99.90;;;;;;5087110;28;20020;-87
2020/12/09 02:37:43;;;;;;;42.80;23.98;;;4.30;99.90;;;;;;5079209;28;20016;-87
2020/12/09 02:40:09;;;;;;;43.80;23.35;;;4.40;99.90;;;;;;5078582;28;20062;-87
2020/12/09 02:42:34;;;;;;;47.10;25.98;;;4.40;99.90;;;;;;5063867;28;20021;-87
2020/12/09 02:45:00;;;;;;;49.38;29.77;;;4.40;99.90;;;;;;5066650;28;20024;-87
2020/12/09 02:47:25;;;;;;;44.10;25.83;;;4.30;99.90;;;;;;5082895;28;20048;-87
2020/12/09 02:49:51;;;;;;;42.72;25.20;;;4.30;99.90;;;;;;5066744;28;20024;-86
2020/12/09 02:52:16;;;;;;;36.97;23.02;;;4.40;99.90;;;;;;5069340;28;20042;-87
2020/12/09 02:54:42;;;;;;;39.42;22.42;;;4.40;99.90;;;;;;5066810;28;20050;-87
2020/12/09 02:57:07;;;;;;;36.65;21.38;;;4.40;99.90;;;;;;5058150;28;20039;-87
2020/12/09 02:59:33;;;;;;;34.00;21.13;;;4.30;99.90;;;;;;5063867;28;20025;-87
2020/12/09 03:01:59;;;;;;;38.40;23.05;;;4.30;99.90;;;;;;5078948;28;20055;-87
2020/12/09 03:04:24;;;;;;;35.35;21.60;;;4.30;99.90;;;;;;5083755;28;20173;-87
2020/12/09 03:06:50;;;;;;;42.22;24.58;;;4.30;99.90;;;;;;5072247;28;20028;-87
2020/12/09 03:09:15;;;;;;;38.83;23.88;;;4.30;99.90;;;;;;5063653;28;20091;-87
2020/12/09 03:11:41;;;;;;;44.95;25.90;;;4.30;99.90;;;;;;5060348;28;20066;-86
2020/12/09 03:14:06;;;;;;;43.45;26.95;;;4.20;99.90;;;;;;5066255;28;20022;-87
2020/12/09 03:16:32;;;;;;;45.00;25.08;;;4.20;99.90;;;;;;5063017;28;20021;-87
2020/12/09 03:18:59;;;;;;;46.38;26.83;;;4.20;99.90;;;;;;5066102;28;20017;-87
2020/12/09 03:21:25;;;;;;;39.97;24.73;;;4.20;99.90;;;;;;5068239;28;20337;-86
2020/12/09 03:23:50;;;;;;;41.00;25.38;;;4.20;99.90;;;;;;5072307;28;20497;-87
2020/12/09 03:26:16;;;;;;;40.00;25.00;;;4.20;99.90;;;;;;5081131;28;20503;-87
2020/12/09 03:28:41;;;;;;;42.75;24.50;;;4.20;99.90;;;;;;5066274;28;20095;-86
2020/12/09 03:31:07;;;;;;;39.08;23.73;;;4.20;99.90;;;;;;5061741;28;20032;-87
2020/12/09 03:33:33;;;;;;;43.03;27.00;;;4.20;99.90;;;;;;5063548;28;20480;-87
2020/12/09 03:35:59;;;;;;;45.90;24.58;;;4.20;99.90;;;;;;5069327;28;20048;-87
2020/12/09 03:38:24;;;;;;;44.05;26.63;;;4.20;99.90;;;;;;5067186;28;20036;-87
2020/12/09 03:40:50;;;;;;;43.35;26.50;;;4.20;99.90;;;;;;5069223;28;20020;-87
2020/12/09 03:43:16;;;;;;;42.83;25.38;;;4.20;99.90;;;;;;5060554;28;20078;-87
2020/12/09 03:45:42;;;;;;;35.60;22.33;;;4.20;99.90;;;;;;5064862;28;20024;-87
2020/12/09 03:48:08;;;;;;;40.42;25.02;;;4.20;99.90;;;;;;5062501;28;20036;-87
2020/12/09 03:50:33;;;;;;;47.13;27.80;;;4.30;99.90;;;;;;5068667;28;20437;-87
2020/12/09 03:52:59;;;;;;;44.17;26.13;;;4.30;99.90;;;;;;5071052;28;20020;-87
2020/12/09 03:55:25;;;;;;;44.65;26.20;;;4.20;99.90;;;;;;5067150;28;20027;-86
2020/12/09 03:57:50;;;;;;;43.53;23.92;;;4.20;99.90;;;;;;5060761;28;20039;-87
2020/12/09 04:00:16;;;;;;;39.35;22.15;;;4.20;99.90;;;;;;5081069;28;20028;-87
2020/12/09 04:02:42;;;;;;;40.33;23.70;;;4.10;99.90;;;;;;5067002;28;20023;-87
2020/12/09 04:05:08;;;;;;;51.40;28.75;;;4.10;99.90;;;;;;5069012;28;20016;-87
2020/12/09 04:07:33;;;;;;;43.30;24.83;;;4.00;99.90;;;;;;5059397;28;20529;-87
2020/12/09 04:09:59;;;;;;;49.08;28.10;;;4.00;99.90;;;;;;5077242;28;20028;-87
2020/12/09 04:12:24;;;;;;;55.60;29.90;;;3.90;99.90;;;;;;5066423;28;20487;-86
2020/12/09 04:14:51;;;;;;;50.45;27.48;;;3.70;99.90;;;;;;5062638;28;20047;-87
2020/12/09 04:17:17;;;;;;;46.22;27.73;;;3.60;99.90;;;;;;5072815;28;20036;-87
2020/12/09 04:19:43;;;;;;;46.45;26.23;;;3.60;99.90;;;;;;5069805;28;20147;-87
2020/12/09 04:22:09;;;;;;;56.83;30.42;;;3.60;99.90;;;;;;5066075;28;20024;-87
2020/12/09 04:24:34;;;;;;;60.03;30.83;;;3.50;99.90;;;;;;5080987;28;20020;-87
2020/12/09 04:27:00;;;;;;;57.40;31.75;;;3.40;99.90;;;;;;5069053;28;20024;-87
2020/12/09 04:29:25;;;;;;;59.53;33.83;;;3.30;99.90;;;;;;5061823;28;20028;-87
2020/12/09 04:31:51;;;;;;;56.58;31.83;;;3.10;99.90;;;;;;5066038;28;20046;-86
2020/12/09 04:34:19;;;;;;;50.25;27.88;;;3.10;99.90;;;;;;5064781;28;20028;-87
2020/12/09 04:36:46;;;;;;;57.85;30.52;;;3.10;99.90;;;;;;5078635;28;20027;-87
2020/12/09 04:39:12;;;;;;;58.70;30.23;;;3.00;99.90;;;;;;5061774;28;20024;-86
2020/12/09 04:41:37;;;;;;;52.65;28.77;;;3.00;99.90;;;;;;5064113;28;20025;-87
2020/12/09 04:44:03;;;;;;;58.63;32.22;;;2.90;99.90;;;;;;5062443;28;20060;-87
2020/12/09 04:46:29;;;;;;;59.80;30.48;;;2.90;99.90;;;;;;5062087;28;20025;-87
2020/12/09 04:49:03;;;;;;;61.65;31.77;;;2.90;99.90;;;;;;5061340;28;20130;-88
2020/12/09 04:52:15;;;;;;;63.90;31.90;;;2.90;99.90;;;;;;5068292;28;20021;-87
2020/12/09 04:54:43;;;;;;;57.65;26.65;;;2.90;99.90;;;;;;5045924;28;20066;-87
2020/12/09 04:57:13;;;;;;;60.03;27.45;;;2.80;99.90;;;;;;5064010;28;20050;-87
2020/12/09 04:59:40;;;;;;;58.78;27.70;;;2.80;99.90;;;;;;5072608;28;20021;-87
2020/12/09 05:02:11;;;;;;;56.47;26.73;;;2.70;99.90;;;;;;5067934;28;20024;-87
2020/12/09 05:04:38;;;;;;;54.70;25.52;;;2.70;99.90;;;;;;5066179;28;20024;-87
2020/12/09 05:07:09;;;;;;;54.13;25.52;;;2.80;99.90;;;;;;5057326;28;20066;-87
2020/12/09 05:09:46;;;;;;;55.60;27.13;;;2.70;99.90;;;;;;5063580;28;20031;-87
2020/12/09 05:12:14;;;;;;;66.85;29.20;;;2.80;99.90;;;;;;5060119;28;20021;-88
2020/12/09 05:14:46;;;;;;;57.60;26.83;;;2.70;99.90;;;;;;5066996;28;20024;-87
2020/12/09 05:17:17;;;;;;;59.40;25.85;;;2.70;99.90;;;;;;5063155;28;20020;-87
2020/12/09 05:19:47;;;;;;;60.63;28.58;;;2.70;99.90;;;;;;5065353;28;20060;-86
2020/12/09 05:22:19;;;;;;;50.00;24.08;;;2.60;99.90;;;;;;5061152;28;20024;-88
2020/12/09 05:24:45;;;;;;;50.22;23.02;;;2.60;99.90;;;;;;5066898;28;20388;-87
2020/12/09 05:27:12;;;;;;;44.88;21.98;;;2.70;99.90;;;;;;5065848;28;20495;-87
2020/12/09 05:29:49;;;;;;;46.58;23.20;;;2.70;99.90;;;;;;5063849;28;20548;-87
2020/12/09 05:32:15;;;;;;;54.28;27.08;;;2.70;99.90;;;;;;5055589;28;20150;-87
2020/12/09 05:34:41;;;;;;;76.80;32.45;;;2.70;99.90;;;;;;5062186;28;20017;-87
2020/12/09 05:37:09;;;;;;;109.90;35.70;;;2.60;99.90;;;;;;5064519;28;20028;-87
2020/12/09 05:39:49;;;;;;;81.18;34.25;;;2.40;99.90;;;;;;5081921;28;20020;-87
2020/12/09 05:42:17;;;;;;;79.53;32.28;;;2.40;99.90;;;;;;5060902;28;20025;-87
2020/12/09 05:44:44;;;;;;;78.50;29.52;;;2.30;99.90;;;;;;5060377;28;20044;-88
2020/12/09 05:47:10;;;;;;;90.30;29.50;;;2.30;99.90;;;;;;5055806;28;20036;-87
2020/12/09 05:49:39;;;;;;;84.82;29.80;;;2.20;99.90;;;;;;5063824;28;20044;-87
2020/12/09 05:52:19;;;;;;;106.80;31.70;;;2.20;99.90;;;;;;5060906;28;20391;-87
2020/12/09 05:54:52;;;;;;;91.75;31.38;;;2.20;99.90;;;;;;5066455;28;20056;-87
2020/12/09 05:57:25;;;;;;;105.80;34.30;;;2.10;99.90;;;;;;5064968;28;20047;-87
2020/12/09 05:59:51;;;;;;;98.63;33.60;;;2.00;99.90;;;;;;5063345;28;20059;-87
2020/12/09 06:02:18;;;;;;;157.10;37.58;;;1.90;99.90;;;;;;5065718;28;20097;-87
2020/12/09 06:04:52;;;;;;;74.63;29.98;;;1.70;99.90;;;;;;5061770;28;20441;-87
2020/12/09 06:07:19;;;;;;;107.32;36.22;;;1.80;99.90;;;;;;5059843;28;20056;-88
2020/12/09 06:10:05;;;;;;;124.13;35.55;;;1.70;99.90;;;;;;5060177;28;20055;-87
2020/12/09 06:12:48;;;;;;;75.63;31.90;;;1.70;99.90;;;;;;5064331;28;20020;-87
2020/12/09 06:15:17;;;;;;;64.85;31.60;;;1.60;99.90;;;;;;5063084;28;20070;-88
2020/12/09 06:17:43;;;;;;;62.55;28.27;;;1.50;99.90;;;;;;5054904;28;20028;-88
2020/12/09 06:20:09;;;;;;;52.45;27.40;;;1.50;99.90;;;;;;5056411;28;20086;-86
2020/12/09 06:22:35;;;;;;;64.53;27.55;;;1.40;99.90;;;;;;5060373;28;20017;-87
2020/12/09 06:25:08;;;;;;;99.90;33.25;;;1.30;99.90;;;;;;5055204;28;20024;-88
2020/12/09 06:27:35;;;;;;;62.88;28.42;;;1.30;99.90;;;;;;5060655;28;20021;-88
2020/12/09 06:30:03;;;;;;;68.43;28.73;;;1.20;99.90;;;;;;5080338;28;20424;-88
2020/12/09 06:32:45;;;;;;;125.95;31.70;;;1.00;99.90;;;;;;5060785;28;20110;-88
2020/12/09 06:35:10;;;;;;;62.30;30.35;;;1.00;99.90;;;;;;5074525;28;20034;-88
2020/12/09 06:37:36;;;;;;;76.55;29.08;;;1.00;99.90;;;;;;5075450;28;20115;-88
2020/12/09 06:40:10;;;;;;;68.63;28.55;;;1.00;99.90;;;;;;5075357;28;20024;-88
2020/12/09 06:42:36;;;;;;;91.45;33.20;;;1.10;99.90;;;;;;5075420;28;20050;-87
2020/12/09 06:45:04;;;;;;;94.13;37.53;;;1.10;99.90;;;;;;5074987;28;20032;-87
2020/12/09 06:47:29;;;;;;;188.88;40.95;;;1.10;99.90;;;;;;5074991;28;20047;-87
2020/12/09 06:49:57;;;;;;;115.80;35.13;;;1.10;99.90;;;;;;5075212;28;20036;-88
2020/12/09 06:52:33;;;;;;;72.85;29.92;;;1.10;99.90;;;;;;5077931;28;20020;-88
2020/12/09 06:55:00;;;;;;;78.82;33.15;;;1.20;99.90;;;;;;5079011;28;20035;-88
2020/12/09 06:57:33;;;;;;;232.00;49.10;;;1.10;99.90;;;;;;5078812;28;20028;-87
2020/12/09 07:00:11;;;;;;;96.15;36.40;;;1.10;99.90;;;;;;5096588;28;20054;-87
2020/12/09 07:02:40;;;;;;;124.15;38.30;;;1.00;99.90;;;;;;5078824;28;20078;-86
2020/12/09 07:05:11;;;;;;;92.90;36.07;;;1.00;99.90;;;;;;5078790;28;20031;-87
2020/12/09 07:07:40;;;;;;;130.02;39.55;;;1.00;99.90;;;;;;5078634;28;20262;-87
2020/12/09 07:10:10;;;;;;;109.00;40.75;;;1.00;99.90;;;;;;5078207;28;20450;-87
2020/12/09 07:12:36;;;;;;;120.75;39.17;;;0.90;99.90;;;;;;5078428;28;20024;-87
2020/12/09 07:15:02;;;;;;;251.40;51.53;;;0.80;99.90;;;;;;5096357;28;20022;-87
2020/12/09 07:17:28;;;;;;;146.82;43.92;;;0.70;99.90;;;;;;5078504;28;20028;-88
2020/12/09 07:19:57;;;;;;;222.02;49.20;;;0.60;99.90;;;;;;5078520;28;20085;-87
2020/12/09 07:22:24;;;;;;;127.30;42.80;;;0.50;99.90;;;;;;5096407;28;20023;-86
2020/12/09 07:24:51;;;;;;;120.30;43.25;;;0.50;99.90;;;;;;5075978;28;20024;-86
2020/12/09 07:27:18;;;;;;;161.50;47.25;;;0.50;99.90;;;;;;5068171;28;20029;-87
2020/12/09 07:29:46;;;;;;;190.68;51.53;;;0.50;99.90;;;;;;5067017;28;20024;-87
2020/12/09 07:32:17;;;;;;;138.40;50.30;;;0.50;99.90;;;;;;5067279;28;20019;-87
2020/12/09 07:34:52;;;;;;;134.80;46.15;;;0.50;99.90;;;;;;5064461;28;20116;-87
2020/12/09 07:37:25;;;;;;;106.65;45.28;;;0.50;99.90;;;;;;5067926;28;20029;-86
2020/12/09 07:39:53;;;;;;;107.45;43.47;;;0.50;99.90;;;;;;5083016;28;20036;-86
2020/12/09 07:42:23;;;;;;;104.13;43.65;;;0.50;99.90;;;;;;5057533;28;20026;-86
2020/12/09 07:44:51;;;;;;;100.10;41.83;;;0.50;99.90;;;;;;5063099;28;20020;-86
2020/12/09 07:47:26;;;;;;;96.45;40.33;;;0.50;99.90;;;;;;5067896;28;20028;-87
2020/12/09 07:50:03;;;;;;;98.35;42.85;;;0.50;99.90;;;;;;5072167;28;20028;-86
2020/12/09 07:52:29;;;;;;;89.13;40.70;;;0.50;99.90;;;;;;5061433;28;20391;-86
2020/12/09 07:54:56;;;;;;;90.93;41.08;;;0.40;99.90;;;;;;5065729;28;20024;-86
2020/12/09 07:57:32;;;;;;;86.07;41.90;;;0.40;99.90;;;;;;5065136;28;20016;-86
2020/12/09 07:59:59;;;;;;;86.55;39.72;;;0.40;99.90;;;;;;5066244;28;20028;-86
2020/12/09 08:02:27;;;;;;;83.05;40.33;;;0.40;99.90;;;;;;5067321;28;20024;-87
2020/12/09 08:05:12;;;;;;;96.35;38.58;;;0.40;99.90;;;;;;5062363;28;20498;-87
2020/12/09 08:07:50;;;;;;;95.13;41.47;;;0.50;99.90;;;;;;5056924;28;20029;-86
2020/12/09 08:10:26;;;;;;;90.30;41.47;;;0.50;99.90;;;;;;5056812;28;20032;-87
2020/12/09 08:13:07;;;;;;;97.05;42.58;;;0.50;99.90;;;;;;5088790;28;20012;-87
2020/12/09 08:15:34;;;;;;;101.88;42.35;;;0.50;99.90;;;;;;5054815;28;20020;-85
2020/12/09 08:18:05;;;;;;;102.78;40.17;;;0.50;99.90;;;;;;5072575;28;20027;-86
2020/12/09 08:20:31;;;;;;;97.03;39.20;;;0.50;99.90;;;;;;5094156;28;20134;-82
2020/12/09 08:23:01;;;;;;;106.80;40.15;;;0.50;99.90;;;;;;5072449;28;20051;-82
2020/12/09 08:25:31;;;;;;;93.60;41.65;;;0.50;99.90;;;;;;5064207;28;20062;-82
2020/12/09 08:28:05;;;;;;;83.97;38.42;;;0.50;99.90;;;;;;5082413;28;20055;-81
2020/12/09 08:30:32;;;;;;;95.50;41.85;;;0.50;99.90;;;;;;5063208;28;20016;-82
2020/12/09 08:33:13;;;;;;;93.85;43.60;;;0.50;99.90;;;;;;5063747;28;20024;-82
2020/12/09 08:35:48;;;;;;;85.50;39.83;;;0.60;99.90;;;;;;5080386;28;20097;-82
2020/12/09 08:38:32;;;;;;;112.60;43.15;;;0.60;99.90;;;;;;5064024;28;20115;-82
2020/12/09 08:41:27;;;;;;;100.28;42.05;;;0.60;99.90;;;;;;5083066;28;20107;-82
2020/12/09 08:43:57;;;;;;;93.20;39.97;;;0.60;99.90;;;;;;5073353;28;20009;-82
2020/12/09 08:46:27;;;;;;;94.38;41.25;;;0.60;99.90;;;;;;5053946;28;20032;-83
2020/12/09 08:48:57;;;;;;;92.05;41.50;;;0.60;99.90;;;;;;5054586;28;20039;-82
2020/12/09 08:51:24;;;;;;;85.00;39.85;;;0.60;99.90;;;;;;5065201;28;20025;-82
2020/12/09 08:53:51;;;;;;;131.40;44.15;;;0.60;99.90;;;;;;5065311;28;20138;-83
2020/12/09 08:56:16;;;;;;;88.75;39.25;;;0.50;99.90;;;;;;5063089;28;20062;-82
2020/12/09 08:58:42;;;;;;;90.10;41.53;;;0.50;99.90;;;;;;5067444;28;20438;-82
2020/12/09 09:01:07;;;;;;;87.85;40.38;;;0.50;99.90;;;;;;5062992;28;20031;-83
2020/12/09 09:03:38;;;;;;;92.85;40.35;;;0.60;99.90;;;;;;5065710;28;20495;-82
2020/12/09 09:06:03;;;;;;;84.35;39.63;;;0.60;99.90;;;;;;5065379;28;20020;-82
2020/12/09 09:08:29;;;;;;;97.22;43.58;;;0.70;99.90;;;;;;5063752;28;20047;-82
2020/12/09 09:10:54;;;;;;;81.30;40.72;;;0.70;99.90;;;;;;5062015;28;20468;-83
2020/12/09 09:13:20;;;;;;;81.25;38.42;;;0.60;99.90;;;;;;5061561;28;20016;-81
2020/12/09 09:15:45;;;;;;;74.47;36.67;;;0.50;99.90;;;;;;5066030;28;20019;-83
2020/12/09 09:18:11;;;;;;;73.30;36.05;;;0.40;99.90;;;;;;5082082;28;20043;-82
2020/12/09 09:20:37;;;;;;;74.72;35.28;;;0.30;99.90;;;;;;5062797;28;20035;-83
2020/12/09 09:23:04;;;;;;;78.35;36.75;;;0.30;99.90;;;;;;5063553;28;20107;-83
2020/12/09 09:25:30;;;;;;;76.85;34.08;;;0.20;99.90;;;;;;5062829;28;20538;-84
2020/12/09 09:27:55;;;;;;;74.18;35.22;;;0.20;99.90;;;;;;5062053;28;20116;-83
2020/12/09 09:30:22;;;;;;;78.43;36.05;;;0.20;99.90;;;;;;5069144;28;20471;-83
2020/12/09 09:32:49;;;;;;;81.78;36.88;;;0.30;99.90;;;;;;5065392;28;20062;-83
2020/12/09 09:35:15;;;;;;;77.97;36.97;;;0.30;99.90;;;;;;5061960;28;20047;-83
2020/12/09 09:37:43;;;;;;;72.95;36.85;;;0.30;99.90;;;;;;5081838;28;20023;-83
2020/12/09 09:40:10;;;;;;;77.70;37.58;;;0.40;99.90;;;;;;5080171;28;20582;-83
2020/12/09 09:42:37;;;;;;;87.70;37.25;;;0.40;99.90;;;;;;5064470;28;20024;-83
2020/12/09 09:45:03;;;;;;;84.47;36.60;;;0.50;99.90;;;;;;5083180;28;20027;-83
2020/12/09 09:47:29;;;;;;;89.93;40.17;;;0.50;99.90;;;;;;5054620;28;20430;-83
2020/12/09 09:49:55;;;;;;;79.57;38.03;;;0.50;99.90;;;;;;5064030;28;20037;-83
2020/12/09 09:52:20;;;;;;;85.20;39.47;;;0.50;99.90;;;;;;5063773;28;20476;-83
2020/12/09 09:54:46;;;;;;;77.82;35.55;;;0.40;99.90;;;;;;5083250;28;20028;-83
2020/12/09 09:57:11;;;;;;;83.30;37.92;;;0.40;99.90;;;;;;5080157;28;20091;-83
2020/12/09 09:59:37;;;;;;;79.05;37.92;;;0.40;99.90;;;;;;5062779;28;20028;-82
2020/12/09 10:02:03;;;;;;;113.05;39.70;;;0.40;99.90;;;;;;5092093;28;20035;-82
2020/12/09 10:04:28;;;;;;;82.53;33.88;;;0.40;99.90;;;;;;5074464;28;20032;-82
2020/12/09 10:06:54;;;;;;;85.65;34.47;;;0.40;99.90;;;;;;5092698;28;20028;-83
2020/12/09 10:09:20;;;;;;;87.95;36.05;;;0.40;99.90;;;;;;5054699;28;20053;-83
2020/12/09 10:11:46;;;;;;;81.93;34.63;;;0.40;99.90;;;;;;5069101;28;20444;-83
2020/12/09 10:14:12;;;;;;;82.95;34.45;;;0.40;99.90;;;;;;5074231;28;20020;-83
2020/12/09 10:16:40;;;;;;;83.65;34.10;;;0.50;99.90;;;;;;5074288;28;20031;-83
2020/12/09 10:19:06;;;;;;;96.53;37.95;;;0.50;99.90;;;;;;5060502;28;20902;-82
2020/12/09 10:21:34;;;;;;;89.13;36.85;;;0.60;99.90;;;;;;5075163;28;20055;-82
2020/12/09 10:24:01;;;;;;;86.78;35.63;;;0.60;99.90;;;;;;5057629;28;20025;-82
2020/12/09 10:26:29;;;;;;;89.18;35.65;;;0.60;99.90;;;;;;5075007;28;20028;-82
2020/12/09 10:28:55;;;;;;;105.93;38.05;;;0.60;99.90;;;;;;5078448;28;20031;-82
2020/12/09 10:31:21;;;;;;;91.63;37.17;;;0.60;99.90;;;;;;5078304;28;20026;-82
2020/12/09 10:33:47;;;;;;;99.95;38.00;;;0.70;99.90;;;;;;5096536;28;20106;-83
2020/12/09 10:36:14;;;;;;;94.65;38.30;;;0.80;99.90;;;;;;5080779;28;20021;-83
2020/12/09 10:38:40;;;;;;;102.28;41.42;;;0.80;99.90;;;;;;5058122;28;20028;-82
2020/12/09 10:41:09;;;;;;;108.30;42.92;;;0.80;99.90;;;;;;5058454;28;20484;-82
2020/12/09 10:43:34;;;;;;;106.77;42.60;;;0.80;99.90;;;;;;5057847;28;20074;-82
2020/12/09 10:46:00;;;;;;;97.97;40.00;;;0.80;99.90;;;;;;5078757;28;20644;-82
2020/12/09 10:48:25;;;;;;;120.47;41.47;;;0.80;99.90;;;;;;5073213;28;20089;-82
2020/12/09 10:50:51;;;;;;;111.78;39.80;;;0.80;99.90;;;;;;5085135;28;20104;-83
2020/12/09 10:53:16;;;;;;;107.10;41.30;;;0.80;99.90;;;;;;5084993;28;20479;-82
2020/12/09 10:55:42;;;;;;;110.43;41.78;;;0.80;99.90;;;;;;5062030;28;20055;-82
2020/12/09 10:58:07;;;;;;;106.25;43.42;;;0.80;99.90;;;;;;5075596;28;20139;-82
2020/12/09 11:00:33;;;;;;;105.07;42.92;;;0.80;99.90;;;;;;5074950;28;20024;-82
2020/12/09 11:02:58;;;;;;;111.80;44.63;;;0.80;99.90;;;;;;5089474;28;20161;-82
2020/12/09 11:05:24;;;;;;;108.55;42.85;;;0.90;99.90;;;;;;5058454;28;20025;-82
2020/12/09 11:07:50;;;;;;;118.43;45.75;;;0.80;99.90;;;;;;5075217;28;20530;-82
2020/12/09 11:10:15;;;;;;;106.75;44.55;;;0.90;99.90;;;;;;5057249;28;20468;-83
2020/12/09 11:12:41;;;;;;;105.85;39.80;;;0.90;99.90;;;;;;5057065;28;20024;-82
2020/12/09 11:15:06;;;;;;;99.10;40.65;;;1.00;99.90;;;;;;5065184;28;20510;-83
2020/12/09 11:17:33;;;;;;;105.63;41.95;;;1.00;99.90;;;;;;5060415;28;20017;-83
2020/12/09 11:19:59;;;;;;;117.53;43.97;;;1.00;99.90;;;;;;5071024;28;20486;-82
2020/12/09 11:22:24;;;;;;;97.70;41.92;;;1.00;99.90;;;;;;5056596;28;20028;-82
2020/12/09 11:24:50;;;;;;;110.47;43.65;;;1.00;99.90;;;;;;5059050;28;20027;-83
2020/12/09 11:27:15;;;;;;;98.28;38.08;;;1.00;99.90;;;;;;5074949;28;20056;-83
2020/12/09 11:29:41;;;;;;;87.20;37.50;;;1.10;99.90;;;;;;5056264;28;20056;-83
2020/12/09 11:32:06;;;;;;;85.78;35.97;;;1.10;99.90;;;;;;5057041;28;20035;-81
2020/12/09 11:34:32;;;;;;;87.93;36.03;;;1.00;99.90;;;;;;5056695;28;20067;-81
2020/12/09 11:37:02;;;;;;;86.72;35.92;;;1.00;99.90;;;;;;5056286;28;20025;-81
2020/12/09 11:39:27;;;;;;;89.40;36.75;;;1.00;99.90;;;;;;5056402;28;20029;-81
2020/12/09 11:41:58;;;;;;;102.22;40.72;;;1.00;99.90;;;;;;5056614;28;20032;-81
2020/12/09 11:44:23;;;;;;;100.97;42.85;;;1.10;99.90;;;;;;5074303;28;20020;-81
2020/12/09 11:46:49;;;;;;;93.80;39.60;;;1.20;99.90;;;;;;5056435;28;20451;-82
2020/12/09 11:49:14;;;;;;;92.07;39.30;;;1.20;99.90;;;;;;5073853;28;20123;-82
2020/12/09 11:51:40;;;;;;;96.53;40.22;;;1.20;99.90;;;;;;5055777;28;20016;-81
2020/12/09 11:54:05;;;;;;;101.80;41.92;;;1.20;99.90;;;;;;5059666;28;20020;-81
2020/12/09 11:56:31;;;;;;;99.53;43.63;;;1.20;99.90;;;;;;5055666;28;20024;-81
2020/12/09 11:58:56;;;;;;;100.82;40.25;;;1.20;99.90;;;;;;5055273;28;20020;-81
2020/12/09 12:01:23;;;;;;;97.15;38.33;;;1.30;99.90;;;;;;5055708;28;20024;-81
2020/12/09 12:03:48;;;;;;;89.90;40.65;;;1.30;99.90;;;;;;5055618;28;20471;-81
2020/12/09 12:06:24;;;;;;;86.90;38.15;;;1.40;99.90;;;;;;5073527;28;20032;-81
2020/12/09 12:08:51;;;;;;;81.18;35.08;;;1.40;99.90;;;;;;5073841;28;20031;-81
2020/12/09 12:11:18;;;;;;;79.35;37.15;;;1.30;99.90;;;;;;5055141;28;20074;-81
2020/12/09 12:13:44;;;;;;;89.78;37.78;;;1.30;99.90;;;;;;5073942;28;20021;-81
2020/12/09 12:16:21;;;;;;;97.38;40.25;;;1.30;99.90;;;;;;5074515;28;20027;-81
2020/12/09 12:18:48;;;;;;;89.60;38.30;;;1.40;99.90;;;;;;5054986;28;20017;-81
2020/12/09 12:21:14;;;;;;;101.22;45.38;;;1.50;99.90;;;;;;5054711;28;20028;-81
2020/12/09 12:23:40;;;;;;;102.75;45.55;;;1.50;99.90;;;;;;5054918;28;20423;-81
2020/12/09 12:26:06;;;;;;;119.07;48.80;;;1.50;99.90;;;;;;5075642;28;20020;-81
2020/12/09 12:28:32;;;;;;;111.28;45.95;;;1.50;99.90;;;;;;5055444;28;20036;-81
2020/12/09 12:30:58;;;;;;;109.38;45.38;;;1.50;99.90;;;;;;5055492;28;20047;-81
2020/12/09 12:33:24;;;;;;;118.38;51.88;;;1.60;99.90;;;;;;5055429;28;20472;-81
2020/12/09 12:35:49;;;;;;;132.75;53.47;;;1.60;99.90;;;;;;5064126;28;20016;-82
2020/12/09 12:38:15;;;;;;;134.13;53.58;;;1.70;99.90;;;;;;5077785;28;20081;-81